sensor_id;sensor_type;location;lat;lon;timestamp;temperature;humidity
2459;DHT22;1241;50.920;6.936;2022-07-31T00:00:30;22.50;99.90
2459;DHT22;1241;50.920;6.936;2022-07-31T00:02:56;22.50;99.90
2459;DHT22;1241;50.920;6.936;2022-07-31T00:05:23;22.40;99.90
2459;DHT22;1241;50.920;6.936;2022-07-31T00:07:49;22.40;99.90
2459;DHT22;1241;50.920;6.936;2022-07-31T00:10:15;22.30;99.90
2459;DHT22;1241;50.920;6.936;2022-07-31T00:12:41;22.30;99.90
2459;DHT22;1241;50.920;6.936;2022-07-31T00:15:08;22.20;99.90
2459;DHT22;1241;50.920;6.936;2022-07-31T00:17:36;22.20;99.90
2459;DHT22;1241;50.920;6.936;2022-07-31T00:20:02;22.10;99.90
2459;DHT22;1241;50.920;6.936;2022-07-31T00:22:28;22.10;99.90
2459;DHT22;1241;50.920;6.936;2022-07-31T00:24:54;22.10;99.90
2459;DHT22;1241;50.920;6.936;2022-07-31T00:27:21;22.00;99.90
2459;DHT22;1241;50.920;6.936;2022-07-31T00:29:48;22.00;99.90
2459;DHT22;1241;50.920;6.936;2022-07-31T00:32:14;22.00;99.90
2459;DHT22;1241;50.920;6.936;2022-07-31T00:34:40;22.00;99.90
2459;DHT22;1241;50.920;6.936;2022-07-31T00:37:07;22.00;99.90
2459;DHT22;1241;50.920;6.936;2022-07-31T00:39:34;22.00;99.90
2459;DHT22;1241;50.920;6.936;2022-07-31T00:42:01;22.00;99.90
2459;DHT22;1241;50.920;6.936;2022-07-31T00:44:27;21.90;99.90
2459;DHT22;1241;50.920;6.936;2022-07-31T00:46:53;21.90;99.90
2459;DHT22;1241;50.920;6.936;2022-07-31T00:49:19;21.80;99.90
2459;DHT22;1241;50.920;6.936;2022-07-31T00:51:45;21.80;99.90
2459;DHT22;1241;50.920;6.936;2022-07-31T00:54:10;21.70;99.90
2459;DHT22;1241;50.920;6.936;2022-07-31T00:56:36;21.70;99.90
2459;DHT22;1241;50.920;6.936;2022-07-31T00:59:03;21.70;99.90
2459;DHT22;1241;50.920;6.936;2022-07-31T01:01:29;21.60;99.90
2459;DHT22;1241;50.920;6.936;2022-07-31T01:03:55;21.60;99.90
2459;DHT22;1241;50.920;6.936;2022-07-31T01:06:21;21.50;99.90
2459;DHT22;1241;50.920;6.936;2022-07-31T01:08:47;21.50;99.90
2459;DHT22;1241;50.920;6.936;2022-07-31T01:11:27;21.40;99.90
2459;DHT22;1241;50.920;6.936;2022-07-31T01:14:00;21.40;99.90
2459;DHT22;1241;50.920;6.936;2022-07-31T01:16:31;21.30;99.90
2459;DHT22;1241;50.920;6.936;2022-07-31T01:18:58;21.30;99.90
2459;DHT22;1241;50.920;6.936;2022-07-31T01:21:35;21.20;99.90
2459;DHT22;1241;50.920;6.936;2022-07-31T01:27:04;21.10;99.90
2459;DHT22;1241;50.920;6.936;2022-07-31T01:29:43;21.10;99.90
2459;DHT22;1241;50.920;6.936;2022-07-31T01:32:13;21.00;99.90
2459;DHT22;1241;50.920;6.936;2022-07-31T01:35:01;21.00;99.90
2459;DHT22;1241;50.920;6.936;2022-07-31T01:37:35;20.90;99.90
2459;DHT22;1241;50.920;6.936;2022-07-31T01:40:09;20.90;99.90
2459;DHT22;1241;50.920;6.936;2022-07-31T01:42:38;20.80;99.90
2459;DHT22;1241;50.920;6.936;2022-07-31T01:45:06;20.80;99.90
2459;DHT22;1241;50.920;6.936;2022-07-31T01:47:35;20.70;99.90
2459;DHT22;1241;50.920;6.936;2022-07-31T01:50:02;20.70;99.90
2459;DHT22;1241;50.920;6.936;2022-07-31T01:52:30;20.70;99.90
2459;DHT22;1241;50.920;6.936;2022-07-31T01:54:58;20.70;99.90
2459;DHT22;1241;50.920;6.936;2022-07-31T01:57:26;20.70;99.90
2459;DHT22;1241;50.920;6.936;2022-07-31T01:59:59;20.70;99.90
2459;DHT22;1241;50.920;6.936;2022-07-31T02:02:43;20.70;99.90
2459;DHT22;1241;50.920;6.936;2022-07-31T02:05:11;20.70;99.90
2459;DHT22;1241;50.920;6.936;2022-07-31T02:07:40;20.60;99.90
2459;DHT22;1241;50.920;6.936;2022-07-31T02:10:09;20.60;99.90
2459;DHT22;1241;50.920;6.936;2022-07-31T02:12:36;20.60;99.90
2459;DHT22;1241;50.920;6.936;2022-07-31T02:15:05;20.60;99.90
2459;DHT22;1241;50.920;6.936;2022-07-31T02:17:33;20.60;99.90
2459;DHT22;1241;50.920;6.936;2022-07-31T02:20:25;20.50;99.90
2459;DHT22;1241;50.920;6.936;2022-07-31T02:22:54;20.50;99.90
2459;DHT22;1241;50.920;6.936;2022-07-31T02:25:20;20.50;99.90
2459;DHT22;1241;50.920;6.936;2022-07-31T02:27:47;20.50;99.90
2459;DHT22;1241;50.920;6.936;2022-07-31T02:30:13;20.50;99.90
2459;DHT22;1241;50.920;6.936;2022-07-31T02:32:43;20.40;99.90
2459;DHT22;1241;50.920;6.936;2022-07-31T02:35:12;20.50;99.90
2459;DHT22;1241;50.920;6.936;2022-07-31T02:37:41;20.50;99.90
2459;DHT22;1241;50.920;6.936;2022-07-31T02:40:08;20.50;99.90
2459;DHT22;1241;50.920;6.936;2022-07-31T02:42:36;20.60;99.90
2459;DHT22;1241;50.920;6.936;2022-07-31T02:45:03;20.60;99.90
2459;DHT22;1241;50.920;6.936;2022-07-31T02:47:31;20.60;99.90
2459;DHT22;1241;50.920;6.936;2022-07-31T02:49:59;20.70;99.90
2459;DHT22;1241;50.920;6.936;2022-07-31T02:52:28;20.70;99.90
2459;DHT22;1241;50.920;6.936;2022-07-31T02:54:54;20.70;99.90
2459;DHT22;1241;50.920;6.936;2022-07-31T02:57:24;20.70;99.90
2459;DHT22;1241;50.920;6.936;2022-07-31T02:59:50;20.70;99.90
2459;DHT22;1241;50.920;6.936;2022-07-31T03:02:16;20.70;99.90
2459;DHT22;1241;50.920;6.936;2022-07-31T03:04:43;20.70;99.90
2459;DHT22;1241;50.920;6.936;2022-07-31T03:07:09;20.70;99.90
2459;DHT22;1241;50.920;6.936;2022-07-31T03:09:35;20.70;99.90
2459;DHT22;1241;50.920;6.936;2022-07-31T03:12:30;20.70;99.90
2459;DHT22;1241;50.920;6.936;2022-07-31T03:14:58;20.70;99.90
2459;DHT22;1241;50.920;6.936;2022-07-31T03:17:24;20.70;99.90
2459;DHT22;1241;50.920;6.936;2022-07-31T03:19:55;20.70;99.90
2459;DHT22;1241;50.920;6.936;2022-07-31T03:22:21;20.70;99.90
2459;DHT22;1241;50.920;6.936;2022-07-31T03:24:47;20.80;99.90
2459;DHT22;1241;50.920;6.936;2022-07-31T03:27:13;20.80;99.90
2459;DHT22;1241;50.920;6.936;2022-07-31T03:29:39;20.80;99.90
2459;DHT22;1241;50.920;6.936;2022-07-31T03:32:05;20.90;99.90
2459;DHT22;1241;50.920;6.936;2022-07-31T03:34:32;20.90;99.90
2459;DHT22;1241;50.920;6.936;2022-07-31T03:36:58;20.90;99.90
2459;DHT22;1241;50.920;6.936;2022-07-31T03:39:24;20.90;99.90
2459;DHT22;1241;50.920;6.936;2022-07-31T03:41:51;21.00;99.90
2459;DHT22;1241;50.920;6.936;2022-07-31T03:44:18;21.00;99.90
2459;DHT22;1241;50.920;6.936;2022-07-31T03:46:45;21.00;99.90
2459;DHT22;1241;50.920;6.936;2022-07-31T03:49:12;21.00;99.90
2459;DHT22;1241;50.920;6.936;2022-07-31T03:51:40;21.00;99.90
2459;DHT22;1241;50.920;6.936;2022-07-31T03:54:06;21.00;99.90
2459;DHT22;1241;50.920;6.936;2022-07-31T03:56:56;21.00;99.90
2459;DHT22;1241;50.920;6.936;2022-07-31T03:59:23;21.10;99.90
2459;DHT22;1241;50.920;6.936;2022-07-31T04:01:50;21.10;99.90
2459;DHT22;1241;50.920;6.936;2022-07-31T04:04:23;21.10;99.90
2459;DHT22;1241;50.920;6.936;2022-07-31T04:07:00;21.10;99.90
2459;DHT22;1241;50.920;6.936;2022-07-31T04:09:26;21.10;99.90
2459;DHT22;1241;50.920;6.936;2022-07-31T04:11:51;21.10;99.90
2459;DHT22;1241;50.920;6.936;2022-07-31T04:14:17;21.10;99.90
2459;DHT22;1241;50.920;6.936;2022-07-31T04:16:44;21.10;99.90
2459;DHT22;1241;50.920;6.936;2022-07-31T04:19:09;21.20;99.90
2459;DHT22;1241;50.920;6.936;2022-07-31T04:21:35;21.30;99.90
2459;DHT22;1241;50.920;6.936;2022-07-31T04:24:01;21.30;99.90
2459;DHT22;1241;50.920;6.936;2022-07-31T04:26:47;21.30;99.90
2459;DHT22;1241;50.920;6.936;2022-07-31T04:29:14;21.50;99.90
2459;DHT22;1241;50.920;6.936;2022-07-31T04:31:40;21.50;99.90
2459;DHT22;1241;50.920;6.936;2022-07-31T04:34:08;21.50;99.90
2459;DHT22;1241;50.920;6.936;2022-07-31T04:36:34;21.50;99.90
2459;DHT22;1241;50.920;6.936;2022-07-31T04:39:00;21.60;99.90
2459;DHT22;1241;50.920;6.936;2022-07-31T04:41:27;21.60;99.90
2459;DHT22;1241;50.920;6.936;2022-07-31T04:43:53;21.60;99.90
2459;DHT22;1241;50.920;6.936;2022-07-31T04:46:19;21.60;99.90
2459;DHT22;1241;50.920;6.936;2022-07-31T04:48:45;21.60;99.90
2459;DHT22;1241;50.920;6.936;2022-07-31T04:51:21;21.70;99.90
2459;DHT22;1241;50.920;6.936;2022-07-31T04:53:47;21.70;99.90
2459;DHT22;1241;50.920;6.936;2022-07-31T04:56:16;21.70;99.90
2459;DHT22;1241;50.920;6.936;2022-07-31T04:58:59;21.80;99.90
2459;DHT22;1241;50.920;6.936;2022-07-31T05:01:25;21.80;99.90
2459;DHT22;1241;50.920;6.936;2022-07-31T05:03:52;21.90;99.90
2459;DHT22;1241;50.920;6.936;2022-07-31T05:06:18;21.90;99.90
2459;DHT22;1241;50.920;6.936;2022-07-31T05:08:44;22.00;99.90
2459;DHT22;1241;50.920;6.936;2022-07-31T05:11:09;22.00;99.90
2459;DHT22;1241;50.920;6.936;2022-07-31T05:13:49;22.10;99.90
2459;DHT22;1241;50.920;6.936;2022-07-31T05:16:17;22.20;99.90
2459;DHT22;1241;50.920;6.936;2022-07-31T05:18:43;22.20;99.90
2459;DHT22;1241;50.920;6.936;2022-07-31T05:21:30;22.20;99.90
2459;DHT22;1241;50.920;6.936;2022-07-31T05:24:16;22.20;99.90
2459;DHT22;1241;50.920;6.936;2022-07-31T05:26:45;22.20;99.90
2459;DHT22;1241;50.920;6.936;2022-07-31T05:29:11;22.20;99.90
2459;DHT22;1241;50.920;6.936;2022-07-31T05:31:37;22.30;99.90
2459;DHT22;1241;50.920;6.936;2022-07-31T05:34:03;22.30;99.90
2459;DHT22;1241;50.920;6.936;2022-07-31T05:36:28;22.40;99.90
2459;DHT22;1241;50.920;6.936;2022-07-31T05:38:54;22.50;99.90
2459;DHT22;1241;50.920;6.936;2022-07-31T05:41:38;22.60;99.90
2459;DHT22;1241;50.920;6.936;2022-07-31T05:44:22;22.70;99.90
2459;DHT22;1241;50.920;6.936;2022-07-31T05:46:49;22.90;99.90
2459;DHT22;1241;50.920;6.936;2022-07-31T05:49:16;23.00;99.90
2459;DHT22;1241;50.920;6.936;2022-07-31T05:51:44;23.10;99.90
2459;DHT22;1241;50.920;6.936;2022-07-31T05:54:11;23.20;99.90
2459;DHT22;1241;50.920;6.936;2022-07-31T05:56:55;23.20;99.90
2459;DHT22;1241;50.920;6.936;2022-07-31T05:59:35;23.10;99.90
2459;DHT22;1241;50.920;6.936;2022-07-31T06:02:01;23.00;99.90
2459;DHT22;1241;50.920;6.936;2022-07-31T06:04:29;23.00;99.90
2459;DHT22;1241;50.920;6.936;2022-07-31T06:06:55;23.10;99.90
2459;DHT22;1241;50.920;6.936;2022-07-31T06:09:21;23.20;99.90
2459;DHT22;1241;50.920;6.936;2022-07-31T06:11:47;23.10;99.90
2459;DHT22;1241;50.920;6.936;2022-07-31T06:14:13;23.20;99.90
2459;DHT22;1241;50.920;6.936;2022-07-31T06:17:07;23.40;99.90
2459;DHT22;1241;50.920;6.936;2022-07-31T06:19:35;23.60;99.90
2459;DHT22;1241;50.920;6.936;2022-07-31T06:22:01;23.90;99.90
2459;DHT22;1241;50.920;6.936;2022-07-31T06:24:29;24.10;99.90
2459;DHT22;1241;50.920;6.936;2022-07-31T06:26:57;24.20;99.90
2459;DHT22;1241;50.920;6.936;2022-07-31T06:29:23;24.40;99.90
2459;DHT22;1241;50.920;6.936;2022-07-31T06:31:49;24.60;99.90
2459;DHT22;1241;50.920;6.936;2022-07-31T06:34:15;24.70;99.90
2459;DHT22;1241;50.920;6.936;2022-07-31T06:36:42;24.80;99.90
2459;DHT22;1241;50.920;6.936;2022-07-31T06:39:14;24.90;99.90
2459;DHT22;1241;50.920;6.936;2022-07-31T06:41:58;24.90;99.90
2459;DHT22;1241;50.920;6.936;2022-07-31T06:44:27;25.00;99.90
2459;DHT22;1241;50.920;6.936;2022-07-31T06:47:12;25.10;99.90
2459;DHT22;1241;50.920;6.936;2022-07-31T06:50:05;25.20;99.90
2459;DHT22;1241;50.920;6.936;2022-07-31T06:52:37;25.30;99.90
2459;DHT22;1241;50.920;6.936;2022-07-31T06:55:05;25.30;99.90
2459;DHT22;1241;50.920;6.936;2022-07-31T06:57:31;25.40;99.90
2459;DHT22;1241;50.920;6.936;2022-07-31T06:59:57;25.40;99.90
2459;DHT22;1241;50.920;6.936;2022-07-31T07:02:22;25.40;99.90
2459;DHT22;1241;50.920;6.936;2022-07-31T07:04:49;25.30;99.90
2459;DHT22;1241;50.920;6.936;2022-07-31T07:07:15;25.30;99.90
2459;DHT22;1241;50.920;6.936;2022-07-31T07:09:41;25.20;99.90
2459;DHT22;1241;50.920;6.936;2022-07-31T07:12:07;25.10;99.90
2459;DHT22;1241;50.920;6.936;2022-07-31T07:14:33;24.90;99.90
2459;DHT22;1241;50.920;6.936;2022-07-31T07:17:04;24.80;99.90
2459;DHT22;1241;50.920;6.936;2022-07-31T07:19:30;24.60;99.90
2459;DHT22;1241;50.920;6.936;2022-07-31T07:21:56;24.50;99.90
2459;DHT22;1241;50.920;6.936;2022-07-31T07:24:22;24.50;99.90
2459;DHT22;1241;50.920;6.936;2022-07-31T07:26:55;24.50;99.90
2459;DHT22;1241;50.920;6.936;2022-07-31T07:29:21;24.60;99.90
2459;DHT22;1241;50.920;6.936;2022-07-31T07:31:49;24.50;99.90
2459;DHT22;1241;50.920;6.936;2022-07-31T07:34:14;24.50;99.90
2459;DHT22;1241;50.920;6.936;2022-07-31T07:36:40;24.40;99.90
2459;DHT22;1241;50.920;6.936;2022-07-31T07:39:28;24.40;99.90
2459;DHT22;1241;50.920;6.936;2022-07-31T07:41:55;24.30;99.90
2459;DHT22;1241;50.920;6.936;2022-07-31T07:44:21;24.30;99.90
2459;DHT22;1241;50.920;6.936;2022-07-31T07:46:47;24.30;99.90
2459;DHT22;1241;50.920;6.936;2022-07-31T07:49:16;24.20;99.90
2459;DHT22;1241;50.920;6.936;2022-07-31T07:51:51;24.30;99.90
2459;DHT22;1241;50.920;6.936;2022-07-31T07:54:36;24.40;99.90
2459;DHT22;1241;50.920;6.936;2022-07-31T07:57:22;24.40;99.90
2459;DHT22;1241;50.920;6.936;2022-07-31T08:00:08;24.40;99.90
2459;DHT22;1241;50.920;6.936;2022-07-31T08:02:57;24.50;99.90
2459;DHT22;1241;50.920;6.936;2022-07-31T08:05:22;24.80;99.90
2459;DHT22;1241;50.920;6.936;2022-07-31T08:07:48;25.10;99.90
2459;DHT22;1241;50.920;6.936;2022-07-31T08:10:37;25.50;99.90
2459;DHT22;1241;50.920;6.936;2022-07-31T08:13:29;25.90;99.90
2459;DHT22;1241;50.920;6.936;2022-07-31T08:16:13;26.40;99.90
2459;DHT22;1241;50.920;6.936;2022-07-31T08:18:42;27.00;99.90
2459;DHT22;1241;50.920;6.936;2022-07-31T08:21:08;27.10;99.90
2459;DHT22;1241;50.920;6.936;2022-07-31T08:23:33;27.10;99.90
2459;DHT22;1241;50.920;6.936;2022-07-31T08:26:01;27.10;99.90
2459;DHT22;1241;50.920;6.936;2022-07-31T08:28:29;27.10;99.90
2459;DHT22;1241;50.920;6.936;2022-07-31T08:30:55;27.10;99.90
2459;DHT22;1241;50.920;6.936;2022-07-31T08:33:22;27.30;99.90
2459;DHT22;1241;50.920;6.936;2022-07-31T08:35:53;27.50;99.90
2459;DHT22;1241;50.920;6.936;2022-07-31T08:38:20;27.70;99.90
2459;DHT22;1241;50.920;6.936;2022-07-31T08:41:02;27.90;99.90
2459;DHT22;1241;50.920;6.936;2022-07-31T08:43:29;28.10;99.90
2459;DHT22;1241;50.920;6.936;2022-07-31T08:45:55;28.30;99.90
2459;DHT22;1241;50.920;6.936;2022-07-31T08:48:27;28.30;99.90
2459;DHT22;1241;50.920;6.936;2022-07-31T08:50:55;28.30;99.90
2459;DHT22;1241;50.920;6.936;2022-07-31T08:53:42;28.30;99.90
2459;DHT22;1241;50.920;6.936;2022-07-31T08:56:19;28.30;99.90
2459;DHT22;1241;50.920;6.936;2022-07-31T08:58:45;28.40;99.90
2459;DHT22;1241;50.920;6.936;2022-07-31T09:01:12;28.40;99.90
2459;DHT22;1241;50.920;6.936;2022-07-31T09:03:38;28.60;99.90
2459;DHT22;1241;50.920;6.936;2022-07-31T09:06:08;28.70;99.90
2459;DHT22;1241;50.920;6.936;2022-07-31T09:08:35;28.80;99.90
2459;DHT22;1241;50.920;6.936;2022-07-31T09:11:09;28.80;99.90
2459;DHT22;1241;50.920;6.936;2022-07-31T09:13:40;28.70;99.90
2459;DHT22;1241;50.920;6.936;2022-07-31T09:16:28;28.30;99.90
2459;DHT22;1241;50.920;6.936;2022-07-31T09:19:03;28.20;99.90
2459;DHT22;1241;50.920;6.936;2022-07-31T09:21:44;28.00;99.90
2459;DHT22;1241;50.920;6.936;2022-07-31T09:24:12;27.90;99.90
2459;DHT22;1241;50.920;6.936;2022-07-31T09:26:38;27.80;99.90
2459;DHT22;1241;50.920;6.936;2022-07-31T09:29:08;27.60;99.90
2459;DHT22;1241;50.920;6.936;2022-07-31T09:31:37;27.50;99.90
2459;DHT22;1241;50.920;6.936;2022-07-31T09:34:26;27.50;99.90
2459;DHT22;1241;50.920;6.936;2022-07-31T09:37:17;27.70;99.90
2459;DHT22;1241;50.920;6.936;2022-07-31T09:40:09;28.00;99.90
2459;DHT22;1241;50.920;6.936;2022-07-31T09:42:53;28.10;99.90
2459;DHT22;1241;50.920;6.936;2022-07-31T09:45:23;28.10;99.90
2459;DHT22;1241;50.920;6.936;2022-07-31T09:48:07;28.20;99.90
2459;DHT22;1241;50.920;6.936;2022-07-31T09:50:36;28.30;99.90
2459;DHT22;1241;50.920;6.936;2022-07-31T09:53:02;28.20;99.90
2459;DHT22;1241;50.920;6.936;2022-07-31T09:55:30;28.30;99.90
2459;DHT22;1241;50.920;6.936;2022-07-31T09:57:58;28.30;99.90
2459;DHT22;1241;50.920;6.936;2022-07-31T10:00:29;28.40;99.90
2459;DHT22;1241;50.920;6.936;2022-07-31T10:02:56;28.60;99.90
2459;DHT22;1241;50.920;6.936;2022-07-31T10:05:24;29.00;99.90
2459;DHT22;1241;50.920;6.936;2022-07-31T10:07:55;29.30;99.90
2459;DHT22;1241;50.920;6.936;2022-07-31T10:10:31;29.40;99.90
2459;DHT22;1241;50.920;6.936;2022-07-31T10:13:07;29.30;99.90
2459;DHT22;1241;50.920;6.936;2022-07-31T10:15:36;29.50;99.90
2459;DHT22;1241;50.920;6.936;2022-07-31T10:18:37;29.50;99.90
2459;DHT22;1241;50.920;6.936;2022-07-31T10:21:11;29.40;99.90
2459;DHT22;1241;50.920;6.936;2022-07-31T10:24:06;29.10;99.90
2459;DHT22;1241;50.920;6.936;2022-07-31T10:26:32;29.10;99.90
2459;DHT22;1241;50.920;6.936;2022-07-31T10:28:59;29.10;99.90
2459;DHT22;1241;50.920;6.936;2022-07-31T10:31:25;29.00;99.90
2459;DHT22;1241;50.920;6.936;2022-07-31T10:33:51;29.00;99.90
2459;DHT22;1241;50.920;6.936;2022-07-31T10:36:39;29.10;99.90
2459;DHT22;1241;50.920;6.936;2022-07-31T10:39:42;29.20;99.90
2459;DHT22;1241;50.920;6.936;2022-07-31T10:45:10;29.30;99.90
2459;DHT22;1241;50.920;6.936;2022-07-31T10:48:09;29.40;99.90
2459;DHT22;1241;50.920;6.936;2022-07-31T10:51:01;29.40;99.90
2459;DHT22;1241;50.920;6.936;2022-07-31T10:53:58;29.50;99.90
2459;DHT22;1241;50.920;6.936;2022-07-31T10:57:00;29.70;99.90
2459;DHT22;1241;50.920;6.936;2022-07-31T10:59:45;29.70;99.90
2459;DHT22;1241;50.920;6.936;2022-07-31T11:02:34;29.50;99.90
2459;DHT22;1241;50.920;6.936;2022-07-31T11:05:16;29.20;99.90
2459;DHT22;1241;50.920;6.936;2022-07-31T11:08:05;28.70;99.90
2459;DHT22;1241;50.920;6.936;2022-07-31T11:10:53;28.60;99.90
2459;DHT22;1241;50.920;6.936;2022-07-31T11:13:44;28.60;99.90
2459;DHT22;1241;50.920;6.936;2022-07-31T11:16:19;28.60;99.90
2459;DHT22;1241;50.920;6.936;2022-07-31T11:19:01;28.80;99.90
2459;DHT22;1241;50.920;6.936;2022-07-31T11:21:36;28.90;99.90
2459;DHT22;1241;50.920;6.936;2022-07-31T11:24:20;29.10;99.90
2459;DHT22;1241;50.920;6.936;2022-07-31T11:26:50;29.50;99.90
2459;DHT22;1241;50.920;6.936;2022-07-31T11:29:43;29.60;99.90
2459;DHT22;1241;50.920;6.936;2022-07-31T11:32:13;29.60;99.90
2459;DHT22;1241;50.920;6.936;2022-07-31T11:34:50;29.60;99.90
2459;DHT22;1241;50.920;6.936;2022-07-31T11:37:24;29.80;99.90
2459;DHT22;1241;50.920;6.936;2022-07-31T11:39:52;30.10;99.90
2459;DHT22;1241;50.920;6.936;2022-07-31T11:42:20;30.50;99.90
2459;DHT22;1241;50.920;6.936;2022-07-31T11:44:46;30.70;99.40
2459;DHT22;1241;50.920;6.936;2022-07-31T11:47:12;30.80;97.70
2459;DHT22;1241;50.920;6.936;2022-07-31T11:49:38;30.70;97.20
2459;DHT22;1241;50.920;6.936;2022-07-31T11:52:06;30.70;97.50
2459;DHT22;1241;50.920;6.936;2022-07-31T11:54:36;30.70;97.70
2459;DHT22;1241;50.920;6.936;2022-07-31T11:57:03;30.60;98.20
2459;DHT22;1241;50.920;6.936;2022-07-31T11:59:37;30.40;99.00
2459;DHT22;1241;50.920;6.936;2022-07-31T12:02:06;30.30;99.10
2459;DHT22;1241;50.920;6.936;2022-07-31T12:04:34;30.30;99.20
2459;DHT22;1241;50.920;6.936;2022-07-31T12:07:07;30.00;99.30
2459;DHT22;1241;50.920;6.936;2022-07-31T12:09:34;29.90;99.70
2459;DHT22;1241;50.920;6.936;2022-07-31T12:12:02;29.90;99.80
2459;DHT22;1241;50.920;6.936;2022-07-31T12:14:38;29.80;99.90
2459;DHT22;1241;50.920;6.936;2022-07-31T12:17:05;29.70;99.90
2459;DHT22;1241;50.920;6.936;2022-07-31T12:19:35;29.60;99.90
2459;DHT22;1241;50.920;6.936;2022-07-31T12:22:14;29.30;99.90
2459;DHT22;1241;50.920;6.936;2022-07-31T12:24:40;29.30;99.90
2459;DHT22;1241;50.920;6.936;2022-07-31T12:27:07;29.50;99.90
2459;DHT22;1241;50.920;6.936;2022-07-31T12:29:35;29.70;99.90
2459;DHT22;1241;50.920;6.936;2022-07-31T12:32:02;29.90;99.90
2459;DHT22;1241;50.920;6.936;2022-07-31T12:34:30;29.90;99.90
2459;DHT22;1241;50.920;6.936;2022-07-31T12:39:27;29.90;99.90
2459;DHT22;1241;50.920;6.936;2022-07-31T12:41:52;29.80;99.90
2459;DHT22;1241;50.920;6.936;2022-07-31T12:44:18;30.00;99.90
2459;DHT22;1241;50.920;6.936;2022-07-31T12:46:45;30.20;99.90
2459;DHT22;1241;50.920;6.936;2022-07-31T12:49:12;30.10;99.90
2459;DHT22;1241;50.920;6.936;2022-07-31T12:51:38;30.10;99.90
2459;DHT22;1241;50.920;6.936;2022-07-31T12:54:05;30.30;99.90
2459;DHT22;1241;50.920;6.936;2022-07-31T12:56:35;30.70;99.90
2459;DHT22;1241;50.920;6.936;2022-07-31T12:59:01;30.80;99.90
2459;DHT22;1241;50.920;6.936;2022-07-31T13:01:27;30.90;99.90
2459;DHT22;1241;50.920;6.936;2022-07-31T13:03:53;31.00;99.90
2459;DHT22;1241;50.920;6.936;2022-07-31T13:06:21;31.20;99.90
2459;DHT22;1241;50.920;6.936;2022-07-31T13:08:47;31.30;99.90
2459;DHT22;1241;50.920;6.936;2022-07-31T13:11:13;31.30;99.90
2459;DHT22;1241;50.920;6.936;2022-07-31T13:13:39;31.20;99.90
2459;DHT22;1241;50.920;6.936;2022-07-31T13:16:05;31.00;99.90
2459;DHT22;1241;50.920;6.936;2022-07-31T13:18:31;30.90;99.90
2459;DHT22;1241;50.920;6.936;2022-07-31T13:20:57;30.70;99.90
2459;DHT22;1241;50.920;6.936;2022-07-31T13:23:23;30.70;99.90
2459;DHT22;1241;50.920;6.936;2022-07-31T13:25:49;30.70;99.90
2459;DHT22;1241;50.920;6.936;2022-07-31T13:28:14;30.80;99.90
2459;DHT22;1241;50.920;6.936;2022-07-31T13:30:40;30.70;99.90
2459;DHT22;1241;50.920;6.936;2022-07-31T13:33:06;30.40;99.90
2459;DHT22;1241;50.920;6.936;2022-07-31T13:35:31;30.40;99.90
2459;DHT22;1241;50.920;6.936;2022-07-31T13:37:57;30.50;99.90
2459;DHT22;1241;50.920;6.936;2022-07-31T13:40:24;30.60;99.90
2459;DHT22;1241;50.920;6.936;2022-07-31T13:43:08;30.80;99.90
2459;DHT22;1241;50.920;6.936;2022-07-31T13:45:34;31.00;99.90
2459;DHT22;1241;50.920;6.936;2022-07-31T13:48:00;30.90;99.90
2459;DHT22;1241;50.920;6.936;2022-07-31T13:50:26;30.90;99.90
2459;DHT22;1241;50.920;6.936;2022-07-31T13:52:51;30.90;99.90
2459;DHT22;1241;50.920;6.936;2022-07-31T13:55:17;30.70;99.90
2459;DHT22;1241;50.920;6.936;2022-07-31T13:57:43;30.60;99.90
2459;DHT22;1241;50.920;6.936;2022-07-31T14:00:09;30.50;99.90
2459;DHT22;1241;50.920;6.936;2022-07-31T14:02:37;30.50;99.90
2459;DHT22;1241;50.920;6.936;2022-07-31T14:05:03;30.40;99.90
2459;DHT22;1241;50.920;6.936;2022-07-31T14:07:28;30.40;99.90
2459;DHT22;1241;50.920;6.936;2022-07-31T14:09:56;30.30;99.90
2459;DHT22;1241;50.920;6.936;2022-07-31T14:12:22;29.90;99.90
2459;DHT22;1241;50.920;6.936;2022-07-31T14:14:49;29.70;99.90
2459;DHT22;1241;50.920;6.936;2022-07-31T14:17:14;29.60;99.90
2459;DHT22;1241;50.920;6.936;2022-07-31T14:19:40;29.70;99.90
2459;DHT22;1241;50.920;6.936;2022-07-31T14:22:06;29.50;99.90
2459;DHT22;1241;50.920;6.936;2022-07-31T14:24:32;29.30;99.90
2459;DHT22;1241;50.920;6.936;2022-07-31T14:26:57;29.20;99.90
2459;DHT22;1241;50.920;6.936;2022-07-31T14:29:23;29.10;99.90
2459;DHT22;1241;50.920;6.936;2022-07-31T14:31:49;29.10;99.90
2459;DHT22;1241;50.920;6.936;2022-07-31T14:34:15;29.10;99.90
2459;DHT22;1241;50.920;6.936;2022-07-31T14:36:40;28.90;99.90
2459;DHT22;1241;50.920;6.936;2022-07-31T14:39:06;28.70;99.90
2459;DHT22;1241;50.920;6.936;2022-07-31T14:41:31;28.50;99.90
2459;DHT22;1241;50.920;6.936;2022-07-31T14:43:57;28.50;99.90
2459;DHT22;1241;50.920;6.936;2022-07-31T14:46:23;28.60;99.90
2459;DHT22;1241;50.920;6.936;2022-07-31T14:48:49;28.70;99.90
2459;DHT22;1241;50.920;6.936;2022-07-31T14:51:18;28.90;99.90
2459;DHT22;1241;50.920;6.936;2022-07-31T14:53:45;29.20;99.90
2459;DHT22;1241;50.920;6.936;2022-07-31T14:56:10;29.50;99.90
2459;DHT22;1241;50.920;6.936;2022-07-31T14:58:36;29.70;99.90
2459;DHT22;1241;50.920;6.936;2022-07-31T15:01:02;29.80;99.90
2459;DHT22;1241;50.920;6.936;2022-07-31T15:03:27;29.80;99.90
2459;DHT22;1241;50.920;6.936;2022-07-31T15:05:54;29.80;99.90
2459;DHT22;1241;50.920;6.936;2022-07-31T15:08:20;29.70;99.90
2459;DHT22;1241;50.920;6.936;2022-07-31T15:10:46;29.60;99.90
2459;DHT22;1241;50.920;6.936;2022-07-31T15:13:11;29.70;99.90
2459;DHT22;1241;50.920;6.936;2022-07-31T15:15:37;29.60;99.90
2459;DHT22;1241;50.920;6.936;2022-07-31T15:18:03;29.50;99.90
2459;DHT22;1241;50.920;6.936;2022-07-31T15:20:29;29.10;99.90
2459;DHT22;1241;50.920;6.936;2022-07-31T15:22:55;29.20;99.90
2459;DHT22;1241;50.920;6.936;2022-07-31T15:25:23;29.30;99.90
2459;DHT22;1241;50.920;6.936;2022-07-31T15:27:48;29.40;99.90
2459;DHT22;1241;50.920;6.936;2022-07-31T15:30:14;29.60;99.90
2459;DHT22;1241;50.920;6.936;2022-07-31T15:32:40;29.60;99.90
2459;DHT22;1241;50.920;6.936;2022-07-31T15:35:08;29.50;99.90
2459;DHT22;1241;50.920;6.936;2022-07-31T15:37:35;29.40;99.90
2459;DHT22;1241;50.920;6.936;2022-07-31T15:40:04;29.30;99.90
2459;DHT22;1241;50.920;6.936;2022-07-31T15:42:31;29.10;99.90
2459;DHT22;1241;50.920;6.936;2022-07-31T15:44:56;28.90;99.90
2459;DHT22;1241;50.920;6.936;2022-07-31T15:47:22;28.90;99.90
2459;DHT22;1241;50.920;6.936;2022-07-31T15:49:48;28.90;99.90
2459;DHT22;1241;50.920;6.936;2022-07-31T15:52:13;28.90;99.90
2459;DHT22;1241;50.920;6.936;2022-07-31T15:54:39;28.90;99.90
2459;DHT22;1241;50.920;6.936;2022-07-31T15:57:05;29.00;99.90
2459;DHT22;1241;50.920;6.936;2022-07-31T15:59:30;28.90;99.90
2459;DHT22;1241;50.920;6.936;2022-07-31T16:01:56;28.90;99.90
2459;DHT22;1241;50.920;6.936;2022-07-31T16:04:22;28.80;99.90
2459;DHT22;1241;50.920;6.936;2022-07-31T16:06:48;28.80;99.90
2459;DHT22;1241;50.920;6.936;2022-07-31T16:09:13;28.70;99.90
2459;DHT22;1241;50.920;6.936;2022-07-31T16:11:39;28.70;99.90
2459;DHT22;1241;50.920;6.936;2022-07-31T16:14:05;28.60;99.90
2459;DHT22;1241;50.920;6.936;2022-07-31T16:16:31;28.70;99.90
2459;DHT22;1241;50.920;6.936;2022-07-31T16:18:58;28.60;99.90
2459;DHT22;1241;50.920;6.936;2022-07-31T16:21:23;28.40;99.90
2459;DHT22;1241;50.920;6.936;2022-07-31T16:23:49;28.30;99.90
2459;DHT22;1241;50.920;6.936;2022-07-31T16:26:15;28.30;99.90
2459;DHT22;1241;50.920;6.936;2022-07-31T16:28:40;28.30;99.90